createdAt,value
2022-08-02T00:09:19.450Z,11.937329763581923
2022-08-02T00:24:35.419Z,12.238325941814605
2022-08-02T00:39:51.380Z,12.176806887398302
2022-08-02T00:55:08.351Z,12.108900595026308
2022-08-02T01:10:24.327Z,12.189578564558436
2022-08-02T01:25:41.294Z,12.356489606367981
2022-08-02T01:40:58.256Z,12.00656864011922
2022-08-02T01:56:15.229Z,11.950569885691765
2022-08-02T02:12:09.841Z,12.170264327754607
2022-08-02T02:26:52.012Z,12.17401283635074
2022-08-02T02:42:03.162Z,12.127286186616105
2022-08-02T02:57:20.073Z,11.939586738657125
2022-08-02T03:12:37.115Z,12.06528049953132
2022-08-02T03:27:54.006Z,12.235422335751634
2022-08-02T03:43:11.003Z,12.114855825390132
2022-08-02T03:58:27.943Z,12.262593131096457
2022-08-02T04:13:43.945Z,12.396635273846883
2022-08-02T04:28:59.882Z,12.58892330880558
2022-08-02T04:44:15.893Z,12.500378390599856
2022-08-02T04:59:32.817Z,12.468678207913097
2022-08-02T05:14:49.821Z,12.599566371722743
2022-08-02T05:30:06.757Z,12.84819791240807
2022-08-02T05:45:22.762Z,12.766892058481579
2022-08-02T06:00:39.693Z,13.157235088674105
2022-08-02T06:15:55.696Z,12.945094021239028
2022-08-02T06:31:11.635Z,12.192694483941478
2022-08-02T06:31:53.527Z,12.192694483941478
2022-08-02T06:47:08.388Z,12.53318418047607
2022-08-02T07:01:45.644Z,12.319703175154764
2022-08-02T07:17:01.567Z,12.534770090278188
2022-08-02T07:32:18.585Z,13.400363698978676
2022-08-02T07:47:35.464Z,13.33035508488939
2022-08-02T08:02:55.120Z,13.110706320028491
2022-08-02T08:18:08.403Z,13.309554561149955
2022-08-02T08:33:24.399Z,13.260183346441275
2022-08-02T08:48:40.330Z,13.48341405171834
2022-08-02T09:03:57.292Z,13.261612633999771
2022-08-02T09:19:14.264Z,13.498563215395224
2022-08-02T09:34:31.234Z,13.373435830528763
2022-08-02T09:49:47.387Z,13.202947507063474
2022-08-02T10:05:04.169Z,13.081517046582876
2022-08-02T10:20:20.131Z,13.591948233847065
2022-08-02T10:35:36.095Z,14.165410811895311
2022-08-02T10:50:48.327Z,14.815415579981416
2022-08-02T11:06:05.054Z,14.58144249167267
2022-08-02T11:21:22.013Z,14.410488225060421
2022-08-02T11:36:37.973Z,15.082589355336472
2022-08-02T11:51:54.947Z,14.893166477562946
2022-08-02T12:07:10.917Z,14.743807292734557
2022-08-02T12:22:27.409Z,14.830444469151498
2022-08-02T12:37:43.853Z,14.663730439464073
2022-08-02T12:53:01.866Z,14.63782904885623
2022-08-02T13:08:18.793Z,14.876430253221738
2022-08-02T13:23:54.124Z,14.66404284504808
2022-08-02T13:38:50.767Z,14.418715709678734
2022-08-02T13:54:07.738Z,14.58312041436943
2022-08-02T14:09:23.709Z,14.20928000574407
2022-08-02T14:24:39.779Z,14.394871334493708
2022-08-02T14:39:59.656Z,13.772370285632686
2022-08-02T14:55:17.227Z,13.67482662830249
2022-08-02T15:10:31.605Z,13.196144369804946
2022-08-02T15:25:47.566Z,13.060421910388879
2022-08-02T15:41:03.537Z,12.642691332681395
2022-08-02T15:56:21.899Z,12.692839015363282
2022-08-02T16:11:36.482Z,12.423539437403962
2022-08-02T16:26:52.450Z,12.116026837290075
2022-08-02T16:42:09.426Z,12.566045595130694
2022-08-02T16:57:42.463Z,12.660496764793521
2022-08-02T17:12:44.364Z,12.42459398416884
2022-08-02T17:28:00.300Z,12.239066816576278
2022-08-02T17:43:16.695Z,12.15357459498291
2022-08-02T17:58:33.636Z,11.832144993435021
2022-08-02T18:13:53.326Z,11.79376880253372
2022-08-02T18:29:05.178Z,11.801231711532001
2022-08-02T18:44:22.189Z,11.760759765065693
2022-08-02T18:59:40.155Z,11.586305106857145
2022-08-02T19:14:57.126Z,11.337140712954977
2022-08-02T19:30:13.057Z,11.105124749768548
2022-08-02T19:45:50.144Z,11.165179669038883
2022-08-02T20:00:46.027Z,10.97570279230911
2022-08-02T20:16:02.005Z,11.237803893513858
2022-08-02T20:31:17.931Z,11.233141736925742
2022-08-02T20:46:34.933Z,11.726142659861692
2022-08-02T21:01:57.470Z,12.59011403955511
2022-08-02T21:17:09.829Z,12.406988966371845
2022-08-02T21:32:25.833Z,12.647061591018963
2022-08-02T21:47:41.776Z,11.526224301745769
2022-08-02T22:02:58.773Z,11.317288949931319
2022-08-02T22:18:14.709Z,11.307936543949676
2022-08-02T22:33:33.512Z,11.357538407135982
2022-08-02T22:48:48.648Z,11.448724178665461
2022-08-02T23:04:06.611Z,11.563995263427389
2022-08-02T23:19:22.580Z,11.520264059078873
2022-08-02T23:34:38.555Z,11.558346133416398
2022-08-02T23:49:54.522Z,11.514811867160029
